sensor_id;sensor_type;location;lat;lon;timestamp;P1;durP1;ratioP1;P2;durP2;ratioP2
19030;SDS011;9648;51.130;13.978;2023-07-24T00:01:15;3.67;;;2.53;;
19030;SDS011;9648;51.130;13.978;2023-07-24T00:03:42;4.07;;;2.72;;
19030;SDS011;9648;51.130;13.978;2023-07-24T00:06:09;3.53;;;2.63;;
19030;SDS011;9648;51.130;13.978;2023-07-24T00:08:35;3.53;;;2.53;;
19030;SDS011;9648;51.130;13.978;2023-07-24T00:11:06;4.32;;;2.65;;
19030;SDS011;9648;51.130;13.978;2023-07-24T00:13:33;4.38;;;2.55;;
19030;SDS011;9648;51.130;13.978;2023-07-24T00:16:00;3.53;;;2.50;;
19030;SDS011;9648;51.130;13.978;2023-07-24T00:18:26;3.63;;;2.45;;
19030;SDS011;9648;51.130;13.978;2023-07-24T00:20:53;3.88;;;2.60;;
19030;SDS011;9648;51.130;13.978;2023-07-24T00:23:20;4.57;;;2.72;;
19030;SDS011;9648;51.130;13.978;2023-07-24T00:25:47;3.30;;;2.42;;
19030;SDS011;9648;51.130;13.978;2023-07-24T00:28:15;3.78;;;2.60;;
19030;SDS011;9648;51.130;13.978;2023-07-24T00:30:42;4.82;;;2.70;;
19030;SDS011;9648;51.130;13.978;2023-07-24T00:33:09;3.22;;;2.40;;
19030;SDS011;9648;51.130;13.978;2023-07-24T00:35:35;3.13;;;2.40;;
19030;SDS011;9648;51.130;13.978;2023-07-24T00:38:02;3.47;;;2.50;;
19030;SDS011;9648;51.130;13.978;2023-07-24T00:40:29;3.45;;;2.47;;
19030;SDS011;9648;51.130;13.978;2023-07-24T00:42:56;3.75;;;2.50;;
19030;SDS011;9648;51.130;13.978;2023-07-24T00:45:24;4.40;;;2.85;;
19030;SDS011;9648;51.130;13.978;2023-07-24T00:47:51;4.13;;;2.65;;
19030;SDS011;9648;51.130;13.978;2023-07-24T00:50:18;3.67;;;2.53;;
19030;SDS011;9648;51.130;13.978;2023-07-24T00:52:45;3.63;;;2.53;;
19030;SDS011;9648;51.130;13.978;2023-07-24T00:55:13;3.55;;;2.60;;
19030;SDS011;9648;51.130;13.978;2023-07-24T00:57:41;4.25;;;2.55;;
19030;SDS011;9648;51.130;13.978;2023-07-24T01:00:10;3.33;;;2.43;;
19030;SDS011;9648;51.130;13.978;2023-07-24T01:02:41;3.58;;;2.30;;
19030;SDS011;9648;51.130;13.978;2023-07-24T01:05:09;2.95;;;2.40;;
19030;SDS011;9648;51.130;13.978;2023-07-24T01:07:38;3.38;;;2.42;;
19030;SDS011;9648;51.130;13.978;2023-07-24T01:10:05;3.10;;;2.50;;
19030;SDS011;9648;51.130;13.978;2023-07-24T01:12:34;3.95;;;2.63;;
19030;SDS011;9648;51.130;13.978;2023-07-24T01:15:06;3.60;;;2.70;;
19030;SDS011;9648;51.130;13.978;2023-07-24T01:17:41;3.72;;;2.75;;
19030;SDS011;9648;51.130;13.978;2023-07-24T01:20:12;4.15;;;2.80;;
19030;SDS011;9648;51.130;13.978;2023-07-24T01:22:46;3.55;;;2.53;;
19030;SDS011;9648;51.130;13.978;2023-07-24T01:25:27;3.37;;;2.60;;
19030;SDS011;9648;51.130;13.978;2023-07-24T01:28:05;3.53;;;2.60;;
19030;SDS011;9648;51.130;13.978;2023-07-24T01:30:36;3.53;;;2.30;;
19030;SDS011;9648;51.130;13.978;2023-07-24T01:33:03;4.50;;;3.10;;
19030;SDS011;9648;51.130;13.978;2023-07-24T01:35:30;3.83;;;2.83;;
19030;SDS011;9648;51.130;13.978;2023-07-24T01:37:58;3.53;;;2.67;;
19030;SDS011;9648;51.130;13.978;2023-07-24T01:40:26;4.15;;;2.97;;
19030;SDS011;9648;51.130;13.978;2023-07-24T01:42:53;3.58;;;2.80;;
19030;SDS011;9648;51.130;13.978;2023-07-24T01:45:21;4.05;;;2.40;;
19030;SDS011;9648;51.130;13.978;2023-07-24T01:47:48;3.80;;;2.78;;
19030;SDS011;9648;51.130;13.978;2023-07-24T01:50:16;4.07;;;2.92;;
19030;SDS011;9648;51.130;13.978;2023-07-24T01:52:43;3.90;;;2.90;;
19030;SDS011;9648;51.130;13.978;2023-07-24T01:55:10;4.00;;;2.90;;
19030;SDS011;9648;51.130;13.978;2023-07-24T01:57:37;3.78;;;2.83;;
19030;SDS011;9648;51.130;13.978;2023-07-24T02:00:04;3.70;;;2.85;;
19030;SDS011;9648;51.130;13.978;2023-07-24T02:02:33;3.50;;;2.67;;
19030;SDS011;9648;51.130;13.978;2023-07-24T02:05:00;4.40;;;2.97;;
19030;SDS011;9648;51.130;13.978;2023-07-24T02:07:26;4.22;;;2.60;;
19030;SDS011;9648;51.130;13.978;2023-07-24T02:09:53;4.07;;;2.40;;
19030;SDS011;9648;51.130;13.978;2023-07-24T02:12:20;3.45;;;2.67;;
19030;SDS011;9648;51.130;13.978;2023-07-24T02:14:47;4.25;;;3.05;;
19030;SDS011;9648;51.130;13.978;2023-07-24T02:17:14;3.57;;;2.60;;
19030;SDS011;9648;51.130;13.978;2023-07-24T02:19:43;5.05;;;3.10;;
19030;SDS011;9648;51.130;13.978;2023-07-24T02:22:09;3.70;;;2.67;;
19030;SDS011;9648;51.130;13.978;2023-07-24T02:24:36;3.47;;;2.53;;
19030;SDS011;9648;51.130;13.978;2023-07-24T02:27:04;3.35;;;2.50;;
19030;SDS011;9648;51.130;13.978;2023-07-24T02:29:31;3.73;;;2.70;;
19030;SDS011;9648;51.130;13.978;2023-07-24T02:31:58;3.83;;;2.50;;
19030;SDS011;9648;51.130;13.978;2023-07-24T02:34:27;4.18;;;2.75;;
19030;SDS011;9648;51.130;13.978;2023-07-24T02:36:55;5.93;;;2.88;;
19030;SDS011;9648;51.130;13.978;2023-07-24T02:39:21;4.28;;;2.83;;
19030;SDS011;9648;51.130;13.978;2023-07-24T02:41:48;3.97;;;2.83;;
19030;SDS011;9648;51.130;13.978;2023-07-24T02:44:17;3.50;;;2.70;;
19030;SDS011;9648;51.130;13.978;2023-07-24T02:46:44;4.13;;;2.90;;
19030;SDS011;9648;51.130;13.978;2023-07-24T02:49:11;3.70;;;2.80;;
19030;SDS011;9648;51.130;13.978;2023-07-24T02:51:38;4.00;;;2.92;;
19030;SDS011;9648;51.130;13.978;2023-07-24T02:54:06;3.65;;;2.70;;
19030;SDS011;9648;51.130;13.978;2023-07-24T02:56:32;3.65;;;2.65;;
19030;SDS011;9648;51.130;13.978;2023-07-24T02:58:59;4.17;;;3.17;;
19030;SDS011;9648;51.130;13.978;2023-07-24T03:01:26;4.05;;;2.85;;
19030;SDS011;9648;51.130;13.978;2023-07-24T03:03:53;4.03;;;2.80;;
19030;SDS011;9648;51.130;13.978;2023-07-24T03:06:19;4.32;;;3.08;;
19030;SDS011;9648;51.130;13.978;2023-07-24T03:08:46;3.50;;;2.75;;
19030;SDS011;9648;51.130;13.978;2023-07-24T03:11:14;3.72;;;2.70;;
19030;SDS011;9648;51.130;13.978;2023-07-24T03:13:41;3.90;;;2.55;;
19030;SDS011;9648;51.130;13.978;2023-07-24T03:16:08;4.70;;;2.90;;
19030;SDS011;9648;51.130;13.978;2023-07-24T03:18:35;4.15;;;2.70;;
19030;SDS011;9648;51.130;13.978;2023-07-24T03:21:02;4.03;;;2.70;;
19030;SDS011;9648;51.130;13.978;2023-07-24T03:23:29;4.43;;;2.90;;
19030;SDS011;9648;51.130;13.978;2023-07-24T03:25:56;4.18;;;2.83;;
19030;SDS011;9648;51.130;13.978;2023-07-24T03:28:24;4.97;;;2.70;;
19030;SDS011;9648;51.130;13.978;2023-07-24T03:30:52;3.50;;;2.60;;
19030;SDS011;9648;51.130;13.978;2023-07-24T03:33:19;3.65;;;2.50;;
19030;SDS011;9648;51.130;13.978;2023-07-24T03:35:46;4.47;;;2.72;;
19030;SDS011;9648;51.130;13.978;2023-07-24T03:38:13;3.75;;;2.80;;
19030;SDS011;9648;51.130;13.978;2023-07-24T03:40:40;4.07;;;2.80;;
19030;SDS011;9648;51.130;13.978;2023-07-24T03:43:06;3.80;;;2.83;;
19030;SDS011;9648;51.130;13.978;2023-07-24T03:45:34;3.75;;;2.70;;
19030;SDS011;9648;51.130;13.978;2023-07-24T03:48:02;3.57;;;2.63;;
19030;SDS011;9648;51.130;13.978;2023-07-24T03:50:29;5.70;;;3.38;;
19030;SDS011;9648;51.130;13.978;2023-07-24T03:52:56;4.20;;;3.00;;
19030;SDS011;9648;51.130;13.978;2023-07-24T03:55:23;6.20;;;3.00;;
19030;SDS011;9648;51.130;13.978;2023-07-24T03:57:49;4.23;;;2.90;;
19030;SDS011;9648;51.130;13.978;2023-07-24T04:00:16;3.70;;;2.90;;
19030;SDS011;9648;51.130;13.978;2023-07-24T04:02:47;3.45;;;2.50;;
19030;SDS011;9648;51.130;13.978;2023-07-24T04:05:14;4.05;;;2.70;;
19030;SDS011;9648;51.130;13.978;2023-07-24T04:07:41;4.05;;;2.78;;
19030;SDS011;9648;51.130;13.978;2023-07-24T04:10:08;3.58;;;2.47;;
19030;SDS011;9648;51.130;13.978;2023-07-24T04:12:35;4.28;;;2.67;;
19030;SDS011;9648;51.130;13.978;2023-07-24T04:15:02;3.80;;;2.90;;
19030;SDS011;9648;51.130;13.978;2023-07-24T04:17:29;4.10;;;2.67;;
19030;SDS011;9648;51.130;13.978;2023-07-24T04:19:58;3.88;;;2.70;;
19030;SDS011;9648;51.130;13.978;2023-07-24T04:22:25;4.10;;;2.70;;
19030;SDS011;9648;51.130;13.978;2023-07-24T04:24:52;4.03;;;2.60;;
19030;SDS011;9648;51.130;13.978;2023-07-24T04:27:21;4.28;;;2.75;;
19030;SDS011;9648;51.130;13.978;2023-07-24T04:29:48;4.85;;;2.80;;
19030;SDS011;9648;51.130;13.978;2023-07-24T04:32:15;3.97;;;2.80;;
19030;SDS011;9648;51.130;13.978;2023-07-24T04:34:42;5.28;;;2.58;;
19030;SDS011;9648;51.130;13.978;2023-07-24T04:37:10;4.03;;;2.83;;
19030;SDS011;9648;51.130;13.978;2023-07-24T04:39:38;3.90;;;2.90;;
19030;SDS011;9648;51.130;13.978;2023-07-24T04:42:05;3.88;;;2.60;;
19030;SDS011;9648;51.130;13.978;2023-07-24T04:44:31;4.50;;;2.75;;
19030;SDS011;9648;51.130;13.978;2023-07-24T04:46:58;4.15;;;3.03;;
19030;SDS011;9648;51.130;13.978;2023-07-24T04:49:28;4.05;;;3.00;;
19030;SDS011;9648;51.130;13.978;2023-07-24T04:51:55;5.40;;;2.80;;
19030;SDS011;9648;51.130;13.978;2023-07-24T04:54:23;4.25;;;2.80;;
19030;SDS011;9648;51.130;13.978;2023-07-24T04:56:49;3.95;;;2.90;;
19030;SDS011;9648;51.130;13.978;2023-07-24T04:59:16;3.92;;;2.72;;
19030;SDS011;9648;51.130;13.978;2023-07-24T05:01:46;4.13;;;2.75;;
19030;SDS011;9648;51.130;13.978;2023-07-24T05:04:16;4.88;;;2.92;;
19030;SDS011;9648;51.130;13.978;2023-07-24T05:06:43;4.10;;;2.80;;
19030;SDS011;9648;51.130;13.978;2023-07-24T05:09:09;3.88;;;2.92;;
19030;SDS011;9648;51.130;13.978;2023-07-24T05:11:38;3.70;;;2.90;;
19030;SDS011;9648;51.130;13.978;2023-07-24T05:14:05;4.85;;;3.33;;
19030;SDS011;9648;51.130;13.978;2023-07-24T05:16:31;5.05;;;2.97;;
19030;SDS011;9648;51.130;13.978;2023-07-24T05:18:58;3.72;;;2.70;;
19030;SDS011;9648;51.130;13.978;2023-07-24T05:21:25;4.32;;;2.80;;
19030;SDS011;9648;51.130;13.978;2023-07-24T05:23:52;5.78;;;2.95;;
19030;SDS011;9648;51.130;13.978;2023-07-24T05:26:19;4.78;;;2.75;;
19030;SDS011;9648;51.130;13.978;2023-07-24T05:28:48;5.10;;;2.92;;
19030;SDS011;9648;51.130;13.978;2023-07-24T05:31:15;4.70;;;2.88;;
19030;SDS011;9648;51.130;13.978;2023-07-24T05:33:42;6.18;;;3.67;;
19030;SDS011;9648;51.130;13.978;2023-07-24T05:36:09;6.35;;;3.30;;
19030;SDS011;9648;51.130;13.978;2023-07-24T05:38:35;4.83;;;3.03;;
19030;SDS011;9648;51.130;13.978;2023-07-24T05:41:02;5.00;;;2.85;;
19030;SDS011;9648;51.130;13.978;2023-07-24T05:43:30;4.20;;;2.95;;
19030;SDS011;9648;51.130;13.978;2023-07-24T05:45:59;5.90;;;3.50;;
19030;SDS011;9648;51.130;13.978;2023-07-24T05:48:31;5.43;;;3.00;;
19030;SDS011;9648;51.130;13.978;2023-07-24T05:50:58;5.95;;;3.00;;
19030;SDS011;9648;51.130;13.978;2023-07-24T05:53:24;4.70;;;2.80;;
19030;SDS011;9648;51.130;13.978;2023-07-24T05:55:58;4.65;;;2.90;;
19030;SDS011;9648;51.130;13.978;2023-07-24T05:58:25;4.85;;;3.00;;
19030;SDS011;9648;51.130;13.978;2023-07-24T06:00:52;6.27;;;3.00;;
19030;SDS011;9648;51.130;13.978;2023-07-24T06:03:21;4.18;;;3.00;;
19030;SDS011;9648;51.130;13.978;2023-07-24T06:05:50;4.18;;;3.05;;
19030;SDS011;9648;51.130;13.978;2023-07-24T06:08:18;6.22;;;3.10;;
19030;SDS011;9648;51.130;13.978;2023-07-24T06:10:45;4.57;;;2.97;;
19030;SDS011;9648;51.130;13.978;2023-07-24T06:13:13;4.60;;;2.83;;
19030;SDS011;9648;51.130;13.978;2023-07-24T06:15:40;3.67;;;2.50;;
19030;SDS011;9648;51.130;13.978;2023-07-24T06:18:07;3.78;;;2.80;;
19030;SDS011;9648;51.130;13.978;2023-07-24T06:20:36;5.07;;;3.00;;
19030;SDS011;9648;51.130;13.978;2023-07-24T06:23:03;4.30;;;3.00;;
19030;SDS011;9648;51.130;13.978;2023-07-24T06:25:30;3.73;;;2.70;;
19030;SDS011;9648;51.130;13.978;2023-07-24T06:27:56;3.63;;;2.60;;
19030;SDS011;9648;51.130;13.978;2023-07-24T06:30:23;4.32;;;2.90;;
19030;SDS011;9648;51.130;13.978;2023-07-24T06:32:50;4.30;;;2.90;;
19030;SDS011;9648;51.130;13.978;2023-07-24T06:35:17;4.32;;;3.00;;
19030;SDS011;9648;51.130;13.978;2023-07-24T06:37:45;4.68;;;2.85;;
19030;SDS011;9648;51.130;13.978;2023-07-24T06:40:12;5.53;;;3.08;;
19030;SDS011;9648;51.130;13.978;2023-07-24T06:42:39;4.13;;;2.75;;
19030;SDS011;9648;51.130;13.978;2023-07-24T06:45:06;5.50;;;2.88;;
19030;SDS011;9648;51.130;13.978;2023-07-24T06:47:34;4.60;;;2.90;;
19030;SDS011;9648;51.130;13.978;2023-07-24T06:50:00;4.18;;;2.85;;
19030;SDS011;9648;51.130;13.978;2023-07-24T06:52:30;5.93;;;3.30;;
19030;SDS011;9648;51.130;13.978;2023-07-24T06:54:59;5.10;;;3.40;;
19030;SDS011;9648;51.130;13.978;2023-07-24T06:57:25;4.60;;;3.20;;
19030;SDS011;9648;51.130;13.978;2023-07-24T06:59:52;4.85;;;2.95;;
19030;SDS011;9648;51.130;13.978;2023-07-24T07:02:19;4.82;;;3.28;;
19030;SDS011;9648;51.130;13.978;2023-07-24T07:04:46;5.95;;;3.00;;
19030;SDS011;9648;51.130;13.978;2023-07-24T07:07:12;5.20;;;3.38;;
19030;SDS011;9648;51.130;13.978;2023-07-24T07:09:39;6.10;;;3.30;;
19030;SDS011;9648;51.130;13.978;2023-07-24T07:12:08;4.93;;;2.85;;
19030;SDS011;9648;51.130;13.978;2023-07-24T07:14:36;5.65;;;3.30;;
19030;SDS011;9648;51.130;13.978;2023-07-24T07:17:03;5.93;;;2.95;;
19030;SDS011;9648;51.130;13.978;2023-07-24T07:19:30;4.75;;;3.10;;
19030;SDS011;9648;51.130;13.978;2023-07-24T07:21:57;5.32;;;3.20;;
19030;SDS011;9648;51.130;13.978;2023-07-24T07:24:24;5.00;;;3.00;;
19030;SDS011;9648;51.130;13.978;2023-07-24T07:26:50;6.00;;;3.10;;
19030;SDS011;9648;51.130;13.978;2023-07-24T07:29:19;5.47;;;3.17;;
19030;SDS011;9648;51.130;13.978;2023-07-24T07:31:45;6.20;;;3.40;;
19030;SDS011;9648;51.130;13.978;2023-07-24T07:34:12;4.88;;;3.47;;
19030;SDS011;9648;51.130;13.978;2023-07-24T07:36:39;8.55;;;3.45;;
19030;SDS011;9648;51.130;13.978;2023-07-24T07:39:06;4.35;;;3.20;;
19030;SDS011;9648;51.130;13.978;2023-07-24T07:41:32;5.23;;;3.50;;
19030;SDS011;9648;51.130;13.978;2023-07-24T07:43:59;4.28;;;2.92;;
19030;SDS011;9648;51.130;13.978;2023-07-24T07:46:30;5.30;;;3.20;;
19030;SDS011;9648;51.130;13.978;2023-07-24T07:48:57;4.63;;;3.13;;
19030;SDS011;9648;51.130;13.978;2023-07-24T07:51:24;5.22;;;3.08;;
19030;SDS011;9648;51.130;13.978;2023-07-24T07:53:52;6.35;;;3.38;;
19030;SDS011;9648;51.130;13.978;2023-07-24T07:56:19;5.05;;;3.28;;
19030;SDS011;9648;51.130;13.978;2023-07-24T07:58:45;5.38;;;3.50;;
19030;SDS011;9648;51.130;13.978;2023-07-24T08:01:12;5.53;;;3.30;;
19030;SDS011;9648;51.130;13.978;2023-07-24T08:03:40;4.50;;;3.33;;
19030;SDS011;9648;51.130;13.978;2023-07-24T08:06:07;4.93;;;3.03;;
19030;SDS011;9648;51.130;13.978;2023-07-24T08:08:34;6.20;;;3.73;;
19030;SDS011;9648;51.130;13.978;2023-07-24T08:11:03;5.97;;;3.50;;
19030;SDS011;9648;51.130;13.978;2023-07-24T08:13:31;7.53;;;3.40;;
19030;SDS011;9648;51.130;13.978;2023-07-24T08:15:57;5.68;;;3.40;;
19030;SDS011;9648;51.130;13.978;2023-07-24T08:18:27;5.32;;;3.53;;
19030;SDS011;9648;51.130;13.978;2023-07-24T08:20:55;5.22;;;3.55;;
19030;SDS011;9648;51.130;13.978;2023-07-24T08:23:22;4.32;;;3.10;;
19030;SDS011;9648;51.130;13.978;2023-07-24T08:25:52;5.28;;;3.30;;
19030;SDS011;9648;51.130;13.978;2023-07-24T08:28:19;4.80;;;3.33;;
19030;SDS011;9648;51.130;13.978;2023-07-24T08:30:46;5.00;;;3.40;;
19030;SDS011;9648;51.130;13.978;2023-07-24T08:33:21;5.13;;;3.20;;
19030;SDS011;9648;51.130;13.978;2023-07-24T08:35:58;4.78;;;3.45;;
19030;SDS011;9648;51.130;13.978;2023-07-24T08:38:26;5.80;;;3.20;;
19030;SDS011;9648;51.130;13.978;2023-07-24T08:40:59;6.22;;;3.50;;
19030;SDS011;9648;51.130;13.978;2023-07-24T08:43:27;5.10;;;3.30;;
19030;SDS011;9648;51.130;13.978;2023-07-24T08:45:57;5.40;;;3.50;;
19030;SDS011;9648;51.130;13.978;2023-07-24T08:48:25;5.23;;;3.37;;
19030;SDS011;9648;51.130;13.978;2023-07-24T08:50:55;5.40;;;3.30;;
19030;SDS011;9648;51.130;13.978;2023-07-24T08:53:25;5.03;;;3.65;;
19030;SDS011;9648;51.130;13.978;2023-07-24T08:55:52;5.65;;;3.25;;
19030;SDS011;9648;51.130;13.978;2023-07-24T08:58:20;6.57;;;3.60;;
19030;SDS011;9648;51.130;13.978;2023-07-24T09:00:47;5.33;;;3.73;;
19030;SDS011;9648;51.130;13.978;2023-07-24T09:03:16;4.93;;;3.50;;
19030;SDS011;9648;51.130;13.978;2023-07-24T09:05:43;6.40;;;4.00;;
19030;SDS011;9648;51.130;13.978;2023-07-24T09:08:11;6.80;;;4.00;;
19030;SDS011;9648;51.130;13.978;2023-07-24T09:10:39;6.55;;;4.10;;
19030;SDS011;9648;51.130;13.978;2023-07-24T09:13:05;5.28;;;3.67;;
19030;SDS011;9648;51.130;13.978;2023-07-24T09:15:39;5.60;;;3.70;;
19030;SDS011;9648;51.130;13.978;2023-07-24T09:18:06;7.17;;;3.90;;
19030;SDS011;9648;51.130;13.978;2023-07-24T09:20:37;5.67;;;3.60;;
19030;SDS011;9648;51.130;13.978;2023-07-24T09:23:05;7.28;;;4.10;;
19030;SDS011;9648;51.130;13.978;2023-07-24T09:25:34;5.10;;;3.90;;
19030;SDS011;9648;51.130;13.978;2023-07-24T09:28:08;6.07;;;4.10;;
19030;SDS011;9648;51.130;13.978;2023-07-24T09:30:36;6.20;;;4.03;;
19030;SDS011;9648;51.130;13.978;2023-07-24T09:33:03;6.23;;;4.07;;
19030;SDS011;9648;51.130;13.978;2023-07-24T09:35:29;5.75;;;3.90;;
19030;SDS011;9648;51.130;13.978;2023-07-24T09:38:04;7.90;;;4.32;;
19030;SDS011;9648;51.130;13.978;2023-07-24T09:40:40;7.00;;;4.22;;
19030;SDS011;9648;51.130;13.978;2023-07-24T09:43:17;5.55;;;4.20;;
19030;SDS011;9648;51.130;13.978;2023-07-24T09:45:45;5.90;;;3.95;;
19030;SDS011;9648;51.130;13.978;2023-07-24T09:48:14;5.93;;;4.10;;
19030;SDS011;9648;51.130;13.978;2023-07-24T09:50:41;5.65;;;4.25;;
19030;SDS011;9648;51.130;13.978;2023-07-24T09:53:12;6.78;;;4.30;;
19030;SDS011;9648;51.130;13.978;2023-07-24T09:55:46;5.85;;;4.22;;
19030;SDS011;9648;51.130;13.978;2023-07-24T09:58:18;6.57;;;4.50;;
19030;SDS011;9648;51.130;13.978;2023-07-24T10:00:46;8.43;;;4.40;;
19030;SDS011;9648;51.130;13.978;2023-07-24T10:03:19;6.53;;;4.22;;
19030;SDS011;9648;51.130;13.978;2023-07-24T10:05:47;6.82;;;4.50;;
19030;SDS011;9648;51.130;13.978;2023-07-24T10:08:16;7.72;;;4.95;;
19030;SDS011;9648;51.130;13.978;2023-07-24T10:10:45;8.30;;;4.38;;
19030;SDS011;9648;51.130;13.978;2023-07-24T10:13:16;6.25;;;4.25;;
19030;SDS011;9648;51.130;13.978;2023-07-24T10:15:43;7.47;;;4.63;;
19030;SDS011;9648;51.130;13.978;2023-07-24T10:18:12;7.88;;;4.80;;
19030;SDS011;9648;51.130;13.978;2023-07-24T10:20:41;6.57;;;4.57;;
19030;SDS011;9648;51.130;13.978;2023-07-24T10:23:08;7.45;;;4.50;;
19030;SDS011;9648;51.130;13.978;2023-07-24T10:25:39;7.32;;;4.63;;
19030;SDS011;9648;51.130;13.978;2023-07-24T10:28:08;8.82;;;5.07;;
19030;SDS011;9648;51.130;13.978;2023-07-24T10:30:36;6.67;;;4.40;;
19030;SDS011;9648;51.130;13.978;2023-07-24T10:33:07;7.82;;;4.72;;
19030;SDS011;9648;51.130;13.978;2023-07-24T10:35:39;7.40;;;4.97;;
19030;SDS011;9648;51.130;13.978;2023-07-24T10:38:07;7.03;;;4.65;;
19030;SDS011;9648;51.130;13.978;2023-07-24T10:40:34;7.07;;;4.85;;
19030;SDS011;9648;51.130;13.978;2023-07-24T10:43:04;7.93;;;4.87;;
19030;SDS011;9648;51.130;13.978;2023-07-24T10:45:40;8.73;;;5.10;;
19030;SDS011;9648;51.130;13.978;2023-07-24T10:48:08;8.25;;;4.97;;
19030;SDS011;9648;51.130;13.978;2023-07-24T10:50:37;7.50;;;4.90;;
19030;SDS011;9648;51.130;13.978;2023-07-24T10:53:05;8.25;;;5.10;;
19030;SDS011;9648;51.130;13.978;2023-07-24T10:55:31;9.02;;;4.60;;
19030;SDS011;9648;51.130;13.978;2023-07-24T10:57:58;11.20;;;4.53;;
19030;SDS011;9648;51.130;13.978;2023-07-24T11:00:25;9.93;;;5.07;;
19030;SDS011;9648;51.130;13.978;2023-07-24T11:02:54;8.30;;;4.85;;
19030;SDS011;9648;51.130;13.978;2023-07-24T11:05:21;7.63;;;4.90;;
19030;SDS011;9648;51.130;13.978;2023-07-24T11:07:48;9.10;;;5.13;;
19030;SDS011;9648;51.130;13.978;2023-07-24T11:10:18;7.57;;;4.97;;
19030;SDS011;9648;51.130;13.978;2023-07-24T11:12:46;7.63;;;5.00;;
19030;SDS011;9648;51.130;13.978;2023-07-24T11:15:13;8.20;;;5.47;;
19030;SDS011;9648;51.130;13.978;2023-07-24T11:17:41;7.78;;;5.13;;
19030;SDS011;9648;51.130;13.978;2023-07-24T11:20:10;9.00;;;5.93;;
19030;SDS011;9648;51.130;13.978;2023-07-24T11:22:38;10.27;;;5.97;;
19030;SDS011;9648;51.130;13.978;2023-07-24T11:25:06;9.20;;;5.80;;
19030;SDS011;9648;51.130;13.978;2023-07-24T11:27:37;8.65;;;5.68;;
19030;SDS011;9648;51.130;13.978;2023-07-24T11:30:07;13.52;;;6.15;;
19030;SDS011;9648;51.130;13.978;2023-07-24T11:32:34;9.57;;;5.72;;
19030;SDS011;9648;51.130;13.978;2023-07-24T11:35:01;11.43;;;6.05;;
19030;SDS011;9648;51.130;13.978;2023-07-24T11:37:30;9.20;;;6.20;;
19030;SDS011;9648;51.130;13.978;2023-07-24T11:39:58;12.83;;;6.20;;
19030;SDS011;9648;51.130;13.978;2023-07-24T11:42:30;8.87;;;5.60;;
19030;SDS011;9648;51.130;13.978;2023-07-24T11:45:00;9.57;;;5.65;;
19030;SDS011;9648;51.130;13.978;2023-07-24T11:47:27;8.55;;;5.45;;
19030;SDS011;9648;51.130;13.978;2023-07-24T11:49:59;8.98;;;5.60;;
19030;SDS011;9648;51.130;13.978;2023-07-24T11:52:26;9.88;;;6.00;;
19030;SDS011;9648;51.130;13.978;2023-07-24T11:55:05;9.25;;;5.40;;
19030;SDS011;9648;51.130;13.978;2023-07-24T11:57:33;7.73;;;5.33;;
19030;SDS011;9648;51.130;13.978;2023-07-24T12:00:00;9.10;;;5.60;;
19030;SDS011;9648;51.130;13.978;2023-07-24T12:02:28;8.68;;;5.20;;
19030;SDS011;9648;51.130;13.978;2023-07-24T12:04:55;7.88;;;4.90;;
19030;SDS011;9648;51.130;13.978;2023-07-24T12:07:28;8.82;;;5.43;;
19030;SDS011;9648;51.130;13.978;2023-07-24T12:09:57;8.75;;;5.32;;
19030;SDS011;9648;51.130;13.978;2023-07-24T12:12:24;11.17;;;5.67;;
19030;SDS011;9648;51.130;13.978;2023-07-24T12:14:51;10.20;;;5.65;;
19030;SDS011;9648;51.130;13.978;2023-07-24T12:17:18;8.07;;;5.45;;
19030;SDS011;9648;51.130;13.978;2023-07-24T12:19:46;9.27;;;5.72;;
19030;SDS011;9648;51.130;13.978;2023-07-24T12:22:13;10.48;;;5.85;;
19030;SDS011;9648;51.130;13.978;2023-07-24T12:24:40;8.75;;;5.32;;
19030;SDS011;9648;51.130;13.978;2023-07-24T12:27:08;8.35;;;5.63;;
19030;SDS011;9648;51.130;13.978;2023-07-24T12:29:35;9.32;;;5.82;;
19030;SDS011;9648;51.130;13.978;2023-07-24T12:32:01;9.10;;;6.07;;
19030;SDS011;9648;51.130;13.978;2023-07-24T12:34:28;9.93;;;5.85;;
19030;SDS011;9648;51.130;13.978;2023-07-24T12:36:55;10.93;;;6.03;;
19030;SDS011;9648;51.130;13.978;2023-07-24T12:39:23;10.55;;;6.05;;
19030;SDS011;9648;51.130;13.978;2023-07-24T12:41:49;9.27;;;5.97;;
19030;SDS011;9648;51.130;13.978;2023-07-24T12:44:17;11.00;;;6.10;;
19030;SDS011;9648;51.130;13.978;2023-07-24T12:46:44;9.65;;;6.68;;
19030;SDS011;9648;51.130;13.978;2023-07-24T12:49:16;10.33;;;6.07;;
19030;SDS011;9648;51.130;13.978;2023-07-24T12:51:43;8.65;;;5.80;;
19030;SDS011;9648;51.130;13.978;2023-07-24T12:54:10;11.13;;;6.35;;
19030;SDS011;9648;51.130;13.978;2023-07-24T12:56:37;10.38;;;6.18;;
19030;SDS011;9648;51.130;13.978;2023-07-24T12:59:03;12.38;;;5.90;;
19030;SDS011;9648;51.130;13.978;2023-07-24T13:01:31;9.48;;;5.90;;
19030;SDS011;9648;51.130;13.978;2023-07-24T13:03:58;10.07;;;6.30;;
19030;SDS011;9648;51.130;13.978;2023-07-24T13:06:25;11.32;;;6.63;;
19030;SDS011;9648;51.130;13.978;2023-07-24T13:08:52;9.07;;;6.22;;
19030;SDS011;9648;51.130;13.978;2023-07-24T13:11:19;10.65;;;6.32;;
19030;SDS011;9648;51.130;13.978;2023-07-24T13:13:46;11.40;;;6.28;;
19030;SDS011;9648;51.130;13.978;2023-07-24T13:16:15;9.48;;;6.15;;
19030;SDS011;9648;51.130;13.978;2023-07-24T13:18:43;10.98;;;6.20;;
19030;SDS011;9648;51.130;13.978;2023-07-24T13:21:10;12.23;;;5.95;;
19030;SDS011;9648;51.130;13.978;2023-07-24T13:23:37;12.48;;;6.57;;
19030;SDS011;9648;51.130;13.978;2023-07-24T13:26:03;9.60;;;6.03;;
19030;SDS011;9648;51.130;13.978;2023-07-24T13:28:30;11.47;;;6.43;;
19030;SDS011;9648;51.130;13.978;2023-07-24T13:30:57;10.13;;;5.95;;
19030;SDS011;9648;51.130;13.978;2023-07-24T13:33:24;11.23;;;6.43;;
19030;SDS011;9648;51.130;13.978;2023-07-24T13:35:52;10.43;;;6.20;;
19030;SDS011;9648;51.130;13.978;2023-07-24T13:38:19;10.32;;;6.28;;
19030;SDS011;9648;51.130;13.978;2023-07-24T13:40:45;10.20;;;6.20;;
19030;SDS011;9648;51.130;13.978;2023-07-24T13:43:12;9.93;;;5.93;;
19030;SDS011;9648;51.130;13.978;2023-07-24T13:45:40;12.20;;;6.30;;
19030;SDS011;9648;51.130;13.978;2023-07-24T13:48:07;8.82;;;5.93;;
19030;SDS011;9648;51.130;13.978;2023-07-24T13:50:34;9.73;;;6.15;;
19030;SDS011;9648;51.130;13.978;2023-07-24T13:53:02;9.07;;;5.88;;
19030;SDS011;9648;51.130;13.978;2023-07-24T13:55:29;10.53;;;6.20;;
19030;SDS011;9648;51.130;13.978;2023-07-24T13:57:55;8.93;;;6.00;;
19030;SDS011;9648;51.130;13.978;2023-07-24T14:00:22;9.15;;;5.72;;
19030;SDS011;9648;51.130;13.978;2023-07-24T14:02:49;10.02;;;6.15;;
19030;SDS011;9648;51.130;13.978;2023-07-24T14:05:16;8.35;;;5.80;;
19030;SDS011;9648;51.130;13.978;2023-07-24T14:07:42;9.75;;;5.88;;
19030;SDS011;9648;51.130;13.978;2023-07-24T14:10:11;7.53;;;5.22;;
19030;SDS011;9648;51.130;13.978;2023-07-24T14:12:38;8.98;;;5.07;;
19030;SDS011;9648;51.130;13.978;2023-07-24T14:15:05;7.70;;;5.20;;
19030;SDS011;9648;51.130;13.978;2023-07-24T14:17:32;7.68;;;5.00;;
19030;SDS011;9648;51.130;13.978;2023-07-24T14:20:00;6.95;;;4.30;;
19030;SDS011;9648;51.130;13.978;2023-07-24T14:22:26;6.10;;;4.30;;
19030;SDS011;9648;51.130;13.978;2023-07-24T14:24:53;6.65;;;4.38;;
19030;SDS011;9648;51.130;13.978;2023-07-24T14:27:21;7.72;;;4.90;;
19030;SDS011;9648;51.130;13.978;2023-07-24T14:29:48;7.17;;;4.60;;
19030;SDS011;9648;51.130;13.978;2023-07-24T14:32:15;8.02;;;4.55;;
19030;SDS011;9648;51.130;13.978;2023-07-24T14:34:42;7.18;;;4.60;;
19030;SDS011;9648;51.130;13.978;2023-07-24T14:37:09;7.32;;;4.57;;
19030;SDS011;9648;51.130;13.978;2023-07-24T14:39:35;8.55;;;4.35;;
19030;SDS011;9648;51.130;13.978;2023-07-24T14:42:02;7.00;;;4.17;;
19030;SDS011;9648;51.130;13.978;2023-07-24T14:44:31;6.00;;;3.83;;
19030;SDS011;9648;51.130;13.978;2023-07-24T14:46:58;5.77;;;3.90;;
19030;SDS011;9648;51.130;13.978;2023-07-24T14:49:24;5.40;;;4.10;;